Weather History for KF46 - February, 2013

Change the Weather History Date:

Thursday, February 28, 2013

  Actual Average (KDFW) Record (KDFW)
Temperature  
Mean Temperature 45 °F 53 °F  
Max Temperature 57 °F 63 °F 88 °F (1932)
Min Temperature 33 °F 43 °F 19 °F (1962)
Degree Days  
Heating Degree Days 20 12  
Month to date heating degree days 427  
Since 1 July heating degree days 1932  
Cooling Degree Days 0 0  
Month to date cooling degree days 5  
Year to date cooling degree days 7  
Moisture  
Dew Point 27 °F    
Average Humidity 51    
Maximum Humidity 81    
Minimum Humidity 30    
Precipitation  
Precipitation 0.00 in 0.11 in 0.92 in (2001)
Month to date precipitation 2.66  
Year to date precipitation 4.79  
Snow  
Snow 0.00 in 0.00 in T in (2001)
Month to date snowfall 0.4  
Since 1 July snowfall 1.0  
Snow Depth -    
Sea Level Pressure  
Sea Level Pressure 30.21 in    
Wind  
Wind Speed 10 mph (NNW)    
Max Wind Speed 17 mph    
Max Gust Speed 26 mph    
Visibility 10 miles    
Events      
T = Trace of Precipitation, MM = Missing Value Source: NWS Daily Summary

Daily Weather History Graph

Daily Weather History Graph

Search for Another Location

Airport or City:

Trip Planner

Search our weather history database for the weather conditions in past years. The results will help you decide how hot, cold, wet, or windy it might be!

Date:

Astronomy

Feb. 28, 2013 Rise Set
Actual Time 6:54 AM CST 6:22 PM CST
Civil Twilight 6:29 AM CST 6:47 PM CST
Nautical Twilight 6:01 AM CST 7:15 PM CST
Astronomical Twilight 5:32 AM CST 7:44 PM CST
Moon 9:36 PM CST (2/28) 8:17 AM CST (2/28)
Length of Visible Light 12h 17m
Length of Day
11h 27m
Waning Gibbous, 90% of the Moon is Illuminated
Feb 28
Waning Gibbous
Mar 4
Last Quarter
Mar 11
New
Mar 19
First Quarter
Mar 27
Full

Hourly Weather History & Observations

Time (CST) Temp. Windchill Dew Point Humidity Pressure Visibility Wind Dir Wind Speed Gust Speed Precip Events Conditions
12:15 AM 39.2 °F 33.6 °F 26.6 °F 61% 30.21 in 10.0 mi NNW 8.1 mph - N/A   Clear
12:35 AM 38.8 °F 33.2 °F 27.0 °F 62% 30.21 in 10.0 mi NNW 8.1 mph - N/A   Clear
1:15 AM 37.8 °F 31.8 °F 27.0 °F 65% 30.22 in 10.0 mi NNW 8.1 mph - N/A   Clear
1:35 AM 37.4 °F 31.4 °F 26.6 °F 65% 30.22 in 10.0 mi NNW 8.1 mph - N/A   Clear
1:55 AM 37.4 °F 31.4 °F 26.6 °F 65% 30.22 in 10.0 mi NNW 8.1 mph - N/A   Clear
2:15 AM 37.2 °F 31.2 °F 26.6 °F 65% 30.22 in 10.0 mi NNW 8.1 mph - N/A   Clear
2:35 AM 36.7 °F 29.9 °F 27.0 °F 68% 30.22 in 10.0 mi NNW 9.2 mph - N/A   Clear
3:15 AM 36.7 °F 29.9 °F 27.3 °F 69% 30.22 in 10.0 mi NNW 9.2 mph - N/A   Clear
3:35 AM 36.3 °F 29.5 °F 27.3 °F 70% 30.22 in 10.0 mi NNW 9.2 mph - N/A   Clear
3:55 AM 36.0 °F 29.6 °F 27.5 °F 71% 30.21 in 10.0 mi NNW 8.1 mph - N/A   Clear
4:15 AM 35.6 °F 28.6 °F 27.9 °F 73% 30.22 in 10.0 mi NNW 9.2 mph - N/A   Clear
4:35 AM 35.6 °F 28.6 °F 28.4 °F 75% 30.22 in 10.0 mi NNW 9.2 mph - N/A   Clear
5:15 AM 35.8 °F 28.8 °F 28.9 °F 76% 30.23 in 10.0 mi NNW 9.2 mph - N/A   Clear
5:35 AM 35.6 °F 29.2 °F 28.9 °F 77% 30.22 in 10.0 mi NNW 8.1 mph - N/A   Clear
5:55 AM 35.1 °F 29.3 °F 28.9 °F 78% 30.23 in 10.0 mi NNW 6.9 mph - N/A   Clear
6:15 AM 34.7 °F 28.1 °F 28.9 °F 79% 30.23 in 10.0 mi NNW 8.1 mph - N/A   Clear
6:35 AM 34.2 °F 27.5 °F 28.8 °F 81% 30.23 in 10.0 mi NNW 8.1 mph - N/A   Clear
6:55 AM 33.8 °F 27.7 °F 28.4 °F 81% 30.24 in 10.0 mi NNW 6.9 mph - N/A   Clear
7:15 AM 33.8 °F 28.6 °F 28.2 °F 80% 30.24 in 10.0 mi NNW 5.8 mph - N/A   Clear
7:35 AM 34.9 °F 29.9 °F 28.4 °F 77% 30.24 in 10.0 mi North 5.8 mph - N/A   Clear
7:55 AM 36.5 °F 29.2 °F 29.1 °F 75% 30.24 in 10.0 mi North 10.4 mph - N/A   Clear
8:15 AM 38.5 °F 31.6 °F 29.1 °F 69% 30.25 in 10.0 mi North 10.4 mph 16.1 mph N/A   Clear
8:35 AM 39.7 °F 33.2 °F 29.3 °F 66% 30.26 in 10.0 mi North 10.4 mph 17.3 mph N/A   Clear
8:55 AM 41.0 °F 33.5 °F 29.1 °F 63% 30.26 in 10.0 mi North 13.8 mph 20.7 mph N/A   Clear
9:15 AM 42.1 °F 35.7 °F 28.9 °F 60% 30.27 in 10.0 mi North 11.5 mph 19.6 mph N/A   Clear
9:35 AM 43.3 °F 36.8 °F 28.9 °F 57% 30.27 in 10.0 mi North 12.7 mph 16.1 mph N/A   Clear
9:55 AM 44.6 °F 38.8 °F 28.6 °F 53% 30.28 in 10.0 mi NNW 11.5 mph - N/A   Clear
10:15 AM 45.7 °F 40.2 °F 28.4 °F 51% 30.28 in 10.0 mi NNW 11.5 mph - N/A   Clear
10:35 AM 45.7 °F 39.8 °F 27.0 °F 48% 30.27 in 10.0 mi NNW 12.7 mph 20.7 mph N/A   Clear
10:55 AM 47.3 °F - 27.0 °F 45% 30.27 in 10.0 mi North 12.7 mph 21.9 mph N/A   Clear
11:15 AM 48.0 °F - 27.5 °F 45% 30.27 in 10.0 mi North 9.2 mph 19.6 mph N/A   Clear
11:35 AM 49.1 °F - 28.2 °F 44% 30.27 in 10.0 mi North 13.8 mph 17.3 mph N/A   Clear
11:55 AM 49.6 °F - 28.4 °F 44% 30.27 in 10.0 mi NNW 9.2 mph - N/A   Clear
12:35 PM 51.8 °F - 28.6 °F 41% 30.25 in 10.0 mi NNW 13.8 mph 19.6 mph N/A   Clear
12:55 PM 52.9 °F - 28.2 °F 39% 30.23 in 10.0 mi NW 12.7 mph 18.4 mph N/A   Clear
1:15 PM 53.6 °F - 27.9 °F 37% 30.22 in 10.0 mi NNW 9.2 mph 18.4 mph N/A   Clear
1:35 PM 53.6 °F - 27.0 °F 36% 30.21 in 10.0 mi North 13.8 mph 25.3 mph N/A   Clear
1:55 PM 54.7 °F - 27.1 °F 35% 30.20 in 10.0 mi NNW 10.4 mph 19.6 mph N/A   Clear
2:15 PM 55.4 °F - 26.4 °F 33% 30.19 in 10.0 mi North 13.8 mph 19.6 mph N/A   Clear
2:35 PM 56.1 °F - 25.5 °F 31% 30.18 in 10.0 mi North 16.1 mph 19.6 mph N/A   Clear
2:55 PM 56.1 °F - 25.5 °F 31% 30.17 in 10.0 mi North 13.8 mph 20.7 mph N/A   Clear
3:15 PM 57.0 °F - 26.1 °F 30% 30.17 in 10.0 mi NW 12.7 mph 19.6 mph N/A   Clear
3:35 PM 57.0 °F - 27.5 °F 32% 30.17 in 10.0 mi NW 17.3 mph 26.5 mph N/A   Clear
3:55 PM 57.0 °F - 26.6 °F 31% 30.17 in 10.0 mi NW 15.0 mph 21.9 mph N/A   Clear
4:15 PM 57.6 °F - 26.8 °F 31% 30.16 in 10.0 mi NW 17.3 mph 23.0 mph N/A   Clear
4:35 PM 57.2 °F - 26.2 °F 31% 30.16 in 10.0 mi NNW 13.8 mph 25.3 mph N/A   Clear
4:55 PM 56.7 °F - 26.6 °F 32% 30.16 in 10.0 mi NNW 15.0 mph 23.0 mph N/A   Clear
5:15 PM 56.7 °F - 25.7 °F 30% 30.15 in 10.0 mi North 16.1 mph 23.0 mph N/A   Clear
5:35 PM 56.1 °F - 25.5 °F 31% 30.15 in 10.0 mi NNW 17.3 mph 21.9 mph N/A   Clear
5:55 PM 55.8 °F - 24.8 °F 30% 30.15 in 10.0 mi North 12.7 mph - N/A   Clear
6:15 PM 54.5 °F - 25.0 °F 32% 30.16 in 10.0 mi North 6.9 mph 16.1 mph N/A   Clear
6:35 PM 52.7 °F - 24.1 °F 33% 30.16 in 10.0 mi North 8.1 mph - N/A   Clear
6:55 PM 51.6 °F - 25.9 °F 37% 30.17 in 10.0 mi North 6.9 mph - N/A   Clear
7:15 PM 50.5 °F - 25.9 °F 38% 30.17 in 10.0 mi North 9.2 mph - N/A   Clear
7:35 PM 50.0 °F - 25.5 °F 39% 30.18 in 10.0 mi North 9.2 mph - N/A   Clear
7:55 PM 48.7 °F - 25.3 °F 40% 30.19 in 10.0 mi North 9.2 mph - N/A   Clear
8:15 PM 48.4 °F - 23.9 °F 38% 30.20 in 10.0 mi North 10.4 mph - N/A   Clear
8:35 PM 47.5 °F - 23.4 °F 39% 30.19 in 10.0 mi North 10.4 mph - N/A   Clear
8:55 PM 46.9 °F - 23.7 °F 40% 30.19 in 10.0 mi North 9.2 mph - N/A   Clear
9:15 PM 46.4 °F 42.4 °F 23.9 °F 41% 30.20 in 10.0 mi North 8.1 mph - N/A   Clear
9:35 PM 46.0 °F 41.9 °F 24.4 °F 43% 30.20 in 10.0 mi North 8.1 mph - N/A   Clear
9:55 PM 45.7 °F 41.0 °F 25.3 °F 45% 30.21 in 10.0 mi North 9.2 mph - N/A   Clear
10:15 PM 44.8 °F 39.9 °F 25.2 °F 46% 30.21 in 10.0 mi North 9.2 mph - N/A   Clear
10:35 PM 43.9 °F 39.9 °F 24.8 °F 47% 30.22 in 10.0 mi North 6.9 mph - N/A   Clear
10:55 PM 43.7 °F 39.1 °F 24.8 °F 47% 30.22 in 10.0 mi North 8.1 mph - N/A   Clear
11:15 PM 42.8 °F 38.6 °F 24.8 °F 49% 30.21 in 10.0 mi North 6.9 mph - N/A   Clear
11:35 PM 42.1 °F 38.4 °F 24.8 °F 50% 30.21 in 10.0 mi North 5.8 mph - N/A   Clear
11:55 PM 41.5 °F 37.8 °F 25.3 °F 53% 30.21 in 10.0 mi North 5.8 mph - N/A   Clear